createdAt,value
2017-09-04T00:00:20.458Z,12.37
2017-09-04T00:01:19.914Z,12.47
2017-09-04T00:02:20.217Z,12.32
2017-09-04T00:03:19.901Z,12.25
2017-09-04T00:04:19.896Z,12.32
2017-09-04T00:05:20.364Z,12.37
2017-09-04T00:06:20.207Z,12.39
2017-09-04T00:07:19.896Z,12.32
2017-09-04T00:08:19.891Z,12.28
2017-09-04T00:09:20.201Z,12.27
2017-09-04T00:10:20.055Z,12.32
2017-09-04T00:11:19.914Z,12.29
2017-09-04T00:12:19.879Z,12.29
2017-09-04T00:13:19.877Z,12.42
2017-09-04T00:14:20.214Z,12.47
2017-09-04T00:15:20.196Z,12.45
2017-09-04T00:16:19.875Z,12.49
2017-09-04T00:17:19.874Z,12.47
2017-09-04T00:18:20.187Z,12.47
2017-09-04T00:19:19.871Z,12.46
2017-09-04T00:20:20.022Z,12.39
2017-09-04T00:21:20.228Z,12.27
2017-09-04T00:22:19.865Z,12.24
2017-09-04T00:23:19.863Z,12.39
2017-09-04T00:24:20.167Z,12.31
2017-09-04T00:25:20.474Z,12.36
2017-09-04T00:26:20.181Z,12.31
2017-09-04T00:27:20.204Z,12.31
2017-09-04T00:28:19.848Z,12.37
2017-09-04T00:29:19.847Z,12.4
2017-09-04T00:30:19.754Z,12.27
2017-09-04T00:31:20.264Z,12.29
2017-09-04T00:32:20.151Z,12.35
2017-09-04T00:33:19.534Z,12.2
2017-09-04T00:34:20.148Z,12.21
2017-09-04T00:35:20.354Z,12.24
2017-09-04T00:36:19.876Z,12.27
2017-09-04T00:37:19.830Z,12.17
2017-09-04T00:38:20.144Z,12.13
2017-09-04T00:39:19.829Z,12.13
2017-09-04T00:40:19.828Z,12.15
2017-09-04T00:41:20.255Z,12.21
2017-09-04T00:42:20.144Z,12.17
2017-09-04T00:43:20.138Z,12.18
2017-09-04T00:44:20.174Z,12.18
2017-09-04T00:45:19.988Z,12.2
2017-09-04T00:46:20.122Z,12.24
2017-09-04T00:47:20.122Z,12.29
2017-09-04T00:48:20.113Z,12.24
2017-09-04T00:49:19.496Z,12.27
2017-09-04T00:50:19.970Z,12.15
2017-09-04T00:51:20.139Z,12.2
2017-09-04T00:52:20.106Z,12.2
2017-09-04T00:53:19.795Z,12.13
2017-09-04T00:54:20.122Z,12.02
2017-09-04T00:55:20.390Z,12.06
2017-09-04T00:56:19.481Z,12.06
2017-09-04T00:57:19.478Z,11.95
2017-09-04T00:58:20.098Z,12.04
2017-09-04T00:59:20.096Z,11.95
2017-09-04T01:00:19.799Z,11.97
2017-09-04T01:01:19.780Z,11.94
2017-09-04T01:02:19.773Z,11.99
2017-09-04T01:03:20.080Z,11.87
2017-09-04T01:04:19.773Z,11.88
2017-09-04T01:05:20.428Z,11.9
2017-09-04T01:06:19.810Z,11.78
2017-09-04T01:07:19.761Z,11.83
2017-09-04T01:08:19.759Z,11.84
2017-09-04T01:09:19.458Z,11.81
2017-09-04T01:10:20.213Z,11.81
2017-09-04T01:11:19.753Z,11.86
2017-09-04T01:12:19.751Z,11.8
2017-09-04T01:13:19.751Z,11.81
2017-09-04T01:14:20.054Z,11.72
2017-09-04T01:15:19.556Z,11.83
2017-09-04T01:16:20.079Z,11.78
2017-09-04T01:17:20.186Z,11.83
2017-09-04T01:18:19.734Z,11.86
2017-09-04T01:19:19.734Z,11.77
2017-09-04T01:20:20.490Z,11.78
2017-09-04T01:21:20.043Z,11.83
2017-09-04T01:22:19.736Z,11.73
2017-09-04T01:23:19.730Z,11.77
2017-09-04T01:24:20.043Z,11.88
2017-09-04T01:25:20.023Z,11.8
2017-09-04T01:26:20.061Z,11.94
2017-09-04T01:27:20.025Z,11.87
2017-09-04T01:28:19.406Z,11.94
2017-09-04T01:29:19.401Z,11.83
2017-09-04T01:30:19.914Z,11.87
2017-09-04T01:31:20.026Z,11.84
2017-09-04T01:32:20.010Z,11.8
2017-09-04T01:33:19.696Z,11.8
2017-09-04T01:34:20.008Z,11.77
2017-09-04T01:35:19.594Z,11.68
2017-09-04T01:36:19.689Z,11.63
2017-09-04T01:37:19.384Z,11.54
2017-09-04T01:38:19.689Z,11.57
2017-09-04T01:39:19.988Z,11.52
2017-09-04T01:40:19.910Z,11.59
2017-09-04T01:41:19.726Z,11.55
2017-09-04T01:42:19.680Z,11.45
2017-09-04T01:43:19.676Z,11.55
2017-09-04T01:44:19.666Z,11.54
2017-09-04T01:45:20.262Z,11.6
2017-09-04T01:46:20.041Z,11.6
2017-09-04T01:47:19.969Z,11.54
2017-09-04T01:48:19.970Z,11.59
2017-09-04T01:49:19.347Z,11.65
2017-09-04T01:50:20.072Z,11.72
2017-09-04T01:51:19.956Z,11.73
2017-09-04T01:52:19.650Z,11.83
2017-09-04T01:53:19.642Z,11.73
2017-09-04T01:54:19.945Z,11.8
2017-09-04T01:55:20.291Z,11.81
2017-09-04T01:56:19.683Z,11.75
2017-09-04T01:57:19.941Z,11.72
2017-09-04T01:58:19.333Z,11.78
2017-09-04T01:59:19.976Z,11.78
2017-09-04T02:00:20.818Z,11.81
2017-09-04T02:01:19.934Z,11.87
2017-09-04T02:02:19.628Z,11.91
2017-09-04T02:03:19.636Z,11.95
2017-09-04T02:04:19.623Z,11.95
2017-09-04T02:05:20.413Z,11.91
2017-09-04T02:06:19.918Z,11.86
2017-09-04T02:07:19.909Z,11.83
2017-09-04T02:08:19.932Z,11.8
2017-09-04T02:09:19.610Z,11.84
2017-09-04T02:10:19.902Z,11.78
2017-09-04T02:11:19.599Z,11.75
2017-09-04T02:12:19.597Z,11.73
2017-09-04T02:13:19.590Z,11.7
2017-09-04T02:14:19.276Z,11.73
2017-09-04T02:15:20.206Z,11.68
2017-09-04T02:16:19.658Z,11.66
2017-09-04T02:17:19.887Z,11.62
2017-09-04T02:18:19.886Z,11.66
2017-09-04T02:19:19.575Z,11.62
2017-09-04T02:20:20.194Z,11.63
2017-09-04T02:21:19.589Z,11.68
2017-09-04T02:22:19.893Z,11.7
2017-09-04T02:23:19.560Z,11.69
2017-09-04T02:24:19.556Z,11.59
2017-09-04T02:25:19.882Z,11.55
2017-09-04T02:26:19.552Z,11.54
2017-09-04T02:27:19.867Z,11.54
2017-09-04T02:28:19.855Z,11.55
2017-09-04T02:29:19.854Z,11.6
2017-09-04T02:30:20.306Z,11.54
2017-09-04T02:31:19.887Z,11.59
2017-09-04T02:32:19.545Z,11.51
2017-09-04T02:33:19.851Z,11.68
2017-09-04T02:34:19.841Z,11.77
2017-09-04T02:35:19.780Z,11.77
2017-09-04T02:36:19.533Z,11.83
2017-09-04T02:37:19.522Z,11.88
2017-09-04T02:38:19.525Z,11.91
2017-09-04T02:39:19.522Z,11.86
2017-09-04T02:40:20.121Z,12.02
2017-09-04T02:41:19.819Z,11.97
2017-09-04T02:42:19.524Z,11.99
2017-09-04T02:43:19.204Z,12.02
2017-09-04T02:44:19.812Z,12.03
2017-09-04T02:45:20.014Z,11.99
2017-09-04T02:46:19.880Z,11.97
2017-09-04T02:47:19.810Z,11.97
2017-09-04T02:48:19.496Z,11.99
2017-09-04T02:49:19.801Z,12.02
2017-09-04T02:50:19.760Z,12
2017-09-04T02:51:19.816Z,11.97
2017-09-04T02:52:19.183Z,11.84
2017-09-04T02:53:19.800Z,11.88
2017-09-04T02:54:19.479Z,11.91
2017-09-04T02:55:19.906Z,11.87
2017-09-04T02:56:19.476Z,11.84
2017-09-04T02:57:19.788Z,11.72
2017-09-04T02:58:19.782Z,11.69
2017-09-04T02:59:19.476Z,11.62
2017-09-04T03:00:20.385Z,11.59
2017-09-04T03:01:19.493Z,11.69
2017-09-04T03:02:19.766Z,11.68
2017-09-04T03:03:19.472Z,11.77
2017-09-04T03:04:19.764Z,11.77
2017-09-04T03:05:19.436Z,11.81
2017-09-04T03:06:19.498Z,11.88
2017-09-04T03:07:19.443Z,11.88
2017-09-04T03:08:19.450Z,11.84
2017-09-04T03:09:19.132Z,11.73
2017-09-04T03:10:20.371Z,11.69
2017-09-04T03:11:19.460Z,11.77
2017-09-04T03:12:19.431Z,11.69
2017-09-04T03:13:19.428Z,11.73
2017-09-04T03:14:19.436Z,11.77
2017-09-04T03:15:20.040Z,11.77
2017-09-04T03:16:19.732Z,11.78
2017-09-04T03:17:19.431Z,11.81
2017-09-04T03:18:19.731Z,11.72
2017-09-04T03:19:19.104Z,11.7
2017-09-04T03:20:19.216Z,11.55
2017-09-04T03:21:19.445Z,11.6
2017-09-04T03:22:19.405Z,11.59
2017-09-04T03:23:19.407Z,11.54
2017-09-04T03:24:19.710Z,11.52
2017-09-04T03:25:20.141Z,11.5
2017-09-04T03:26:19.752Z,11.5
2017-09-04T03:27:19.708Z,11.43
2017-09-04T03:28:19.078Z,11.43
2017-09-04T03:29:19.077Z,11.44
2017-09-04T03:30:19.389Z,11.37
2017-09-04T03:31:19.395Z,11.32
2017-09-04T03:32:19.693Z,11.23
2017-09-04T03:33:19.690Z,11.47
2017-09-04T03:34:19.366Z,11.33
2017-09-04T03:35:20.240Z,11.48
2017-09-04T03:36:19.432Z,11.48
2017-09-04T03:37:19.053Z,11.47
2017-09-04T03:38:19.359Z,11.51
2017-09-04T03:39:19.354Z,11.47
2017-09-04T03:40:19.994Z,11.47
2017-09-04T03:41:19.717Z,11.54
2017-09-04T03:42:19.355Z,11.37
2017-09-04T03:43:19.343Z,11.41
2017-09-04T03:44:19.384Z,11.32
2017-09-04T03:45:19.800Z,11.36
2017-09-04T03:46:19.685Z,11.27
2017-09-04T03:47:19.327Z,11.26
2017-09-04T03:48:19.324Z,11.27
2017-09-04T03:49:19.328Z,11.23
2017-09-04T03:50:20.052Z,11.33
2017-09-04T03:51:19.315Z,11.26
2017-09-04T03:52:19.314Z,11.35
2017-09-04T03:53:19.314Z,11.36
2017-09-04T03:54:19.306Z,11.32
2017-09-04T03:55:19.933Z,11.37
2017-09-04T03:56:19.325Z,11.36
2017-09-04T03:57:18.991Z,11.32
2017-09-04T03:58:19.302Z,11.37
2017-09-04T03:59:19.613Z,11.37
2017-09-04T04:00:19.950Z,11.32
2017-09-04T04:01:19.596Z,11.37
2017-09-04T04:02:19.596Z,11.47
2017-09-04T04:03:19.597Z,11.43
2017-09-04T04:04:18.975Z,11.37
2017-09-04T04:05:19.727Z,11.35
2017-09-04T04:06:20.596Z,11.4
2017-09-04T04:07:19.267Z,11.35
2017-09-04T04:08:19.578Z,11.43
2017-09-04T04:09:19.572Z,11.45
2017-09-04T04:10:19.745Z,11.41
2017-09-04T04:11:19.587Z,11.52
2017-09-04T04:12:19.563Z,11.4
2017-09-04T04:13:19.250Z,11.48
2017-09-04T04:14:19.254Z,11.41
2017-09-04T04:15:19.877Z,11.41
2017-09-04T04:16:19.266Z,11.43
2017-09-04T04:17:19.240Z,11.47
2017-09-04T04:18:19.237Z,11.4
2017-09-04T04:19:19.248Z,11.37
2017-09-04T04:20:19.783Z,11.4
2017-09-04T04:21:19.229Z,11.43
2017-09-04T04:22:19.230Z,11.27
2017-09-04T04:23:19.549Z,11.26
2017-09-04T04:24:19.532Z,11.18
2017-09-04T04:25:19.654Z,11.17
2017-09-04T04:26:19.218Z,11.11
2017-09-04T04:27:19.212Z,11.12
2017-09-04T04:28:18.911Z,10.99
2017-09-04T04:29:19.518Z,10.96
2017-09-04T04:30:19.607Z,10.92
2017-09-04T04:31:19.215Z,10.93
2017-09-04T04:32:19.510Z,10.89
2017-09-04T04:33:19.510Z,10.79
2017-09-04T04:34:19.512Z,10.78
2017-09-04T04:35:19.257Z,10.75
2017-09-04T04:36:18.899Z,10.68
2017-09-04T04:37:19.487Z,10.74
2017-09-04T04:38:19.489Z,10.72
2017-09-04T04:39:19.172Z,10.71
2017-09-04T04:40:19.397Z,10.71
2017-09-04T04:41:19.516Z,10.68
2017-09-04T04:42:18.854Z,10.76
2017-09-04T04:43:19.493Z,10.84
2017-09-04T04:44:18.953Z,10.81
2017-09-04T04:45:19.636Z,10.86
2017-09-04T04:46:19.451Z,10.86
2017-09-04T04:47:19.494Z,10.78
2017-09-04T04:48:19.447Z,10.78
2017-09-04T04:49:19.139Z,10.74
2017-09-04T04:50:19.997Z,10.63
2017-09-04T04:51:19.141Z,10.54
2017-09-04T04:52:19.440Z,10.59
2017-09-04T04:53:19.469Z,10.51
2017-09-04T04:54:19.423Z,10.51
2017-09-04T04:55:19.678Z,10.57
2017-09-04T04:56:19.508Z,10.57
2017-09-04T04:57:19.105Z,10.56
2017-09-04T04:58:19.427Z,10.49
2017-09-04T04:59:19.419Z,10.51
2017-09-04T05:00:19.661Z,10.41
2017-09-04T05:01:19.119Z,10.53
2017-09-04T05:02:19.085Z,10.51
2017-09-04T05:03:19.080Z,10.38
2017-09-04T05:04:19.095Z,10.42
2017-09-04T05:05:19.276Z,10.46
2017-09-04T05:06:19.404Z,10.56
2017-09-04T05:07:19.067Z,10.63
2017-09-04T05:08:19.391Z,10.57
2017-09-04T05:09:19.455Z,10.68
2017-09-04T05:10:19.321Z,10.78
2017-09-04T05:11:19.104Z,10.76
2017-09-04T05:12:19.067Z,10.81
2017-09-04T05:13:19.352Z,11.04
2017-09-04T05:14:19.349Z,11.11
2017-09-04T05:15:18.901Z,11.37
2017-09-04T05:16:18.723Z,11.44
2017-09-04T05:17:19.042Z,11.66
2017-09-04T05:18:19.027Z,11.83
2017-09-04T05:19:19.033Z,11.99
2017-09-04T05:20:19.544Z,12.2
2017-09-04T05:21:19.339Z,12.28
2017-09-04T05:22:19.019Z,12.32
2017-09-04T05:23:19.017Z,12.49
2017-09-04T05:24:18.710Z,12.5
2017-09-04T05:25:18.932Z,12.53
2017-09-04T05:26:19.105Z,12.37
2017-09-04T05:27:19.357Z,12.32
2017-09-04T05:28:19.310Z,12.22
2017-09-04T05:29:18.998Z,12.42
2017-09-04T05:30:20.142Z,12.6
2017-09-04T05:31:18.996Z,12.7
2017-09-04T05:32:18.685Z,12.6
2017-09-04T05:33:18.689Z,12.53
2017-09-04T05:34:18.990Z,12.35
2017-09-04T05:35:20.150Z,12.18
2017-09-04T05:36:18.674Z,12.17
2017-09-04T05:37:19.295Z,12.03
2017-09-04T05:38:18.982Z,11.81
2017-09-04T05:39:19.285Z,11.8
2017-09-04T05:40:20.148Z,11.73
2017-09-04T05:41:19.332Z,11.77
2017-09-04T05:42:19.279Z,11.69
2017-09-04T05:43:19.287Z,11.75
2017-09-04T05:44:18.968Z,11.72
2017-09-04T05:45:19.788Z,11.59
2017-09-04T05:46:18.736Z,11.78
2017-09-04T05:47:19.267Z,11.8
2017-09-04T05:48:18.953Z,11.91
2017-09-04T05:49:18.956Z,11.87
2017-09-04T05:50:19.687Z,12.02
2017-09-04T05:51:19.256Z,12
2017-09-04T05:52:18.939Z,12.09
2017-09-04T05:53:18.939Z,12.1
2017-09-04T05:54:18.937Z,12
2017-09-04T05:55:20.007Z,12.03
2017-09-04T05:56:19.340Z,11.97
2017-09-04T05:57:19.248Z,12.03
2017-09-04T05:58:19.238Z,12.17
2017-09-04T05:59:19.249Z,12.2
2017-09-04T06:00:20.091Z,12.2
2017-09-04T06:01:19.280Z,12.13
2017-09-04T06:02:19.240Z,12.39
2017-09-04T06:03:18.929Z,12.28
2017-09-04T06:04:19.260Z,12.4
2017-09-04T06:05:19.407Z,12.36
2017-09-04T06:06:19.237Z,12.53
2017-09-04T06:07:18.599Z,12.53
2017-09-04T06:08:18.596Z,12.62
2017-09-04T06:09:19.224Z,12.65
2017-09-04T06:10:19.884Z,12.72
2017-09-04T06:11:18.669Z,12.76
2017-09-04T06:12:18.900Z,12.78
2017-09-04T06:13:19.222Z,12.82
2017-09-04T06:14:19.215Z,12.93
2017-09-04T06:15:19.952Z,13.04
2017-09-04T06:16:18.943Z,13
2017-09-04T06:17:18.887Z,13.22
2017-09-04T06:18:18.582Z,13.31
2017-09-04T06:19:18.578Z,13.42
2017-09-04T06:20:19.736Z,13.35
2017-09-04T06:21:19.271Z,13.42
2017-09-04T06:22:19.204Z,13.57
2017-09-04T06:23:19.205Z,13.87
2017-09-04T06:24:18.885Z,14.17
2017-09-04T06:25:19.978Z,14.36
2017-09-04T06:26:18.915Z,14.47
2017-09-04T06:27:19.205Z,14.66
2017-09-04T06:28:18.878Z,15.03
2017-09-04T06:29:18.884Z,15.39
2017-09-04T06:30:18.828Z,15.54
2017-09-04T06:31:18.883Z,15.65
2017-09-04T06:32:19.188Z,15.68
2017-09-04T06:33:19.205Z,15.61
2017-09-04T06:34:19.190Z,15.73
2017-09-04T06:35:19.239Z,15.64
2017-09-04T06:36:18.672Z,15.67
2017-09-04T06:37:19.209Z,15.59
2017-09-04T06:38:18.890Z,15.46
2017-09-04T06:39:19.198Z,15.47
2017-09-04T06:40:19.363Z,15.55
2017-09-04T06:41:18.941Z,15.75
2017-09-04T06:42:18.905Z,16.15
2017-09-04T06:43:19.212Z,16.51
2017-09-04T06:44:18.897Z,16.68
2017-09-04T06:45:19.278Z,16.79
2017-09-04T06:46:18.907Z,16.86
2017-09-04T06:47:19.216Z,17.02
2017-09-04T06:48:19.215Z,17.33
2017-09-04T06:49:19.212Z,17.64
2017-09-04T06:50:19.907Z,17.9
2017-09-04T06:51:18.902Z,18.26
2017-09-04T06:52:19.216Z,18.49
2017-09-04T06:53:18.620Z,18.65
2017-09-04T06:54:19.241Z,18.71
2017-09-04T06:55:20.012Z,18.71
2017-09-04T06:56:18.983Z,18.52
2017-09-04T06:57:18.922Z,18.44
2017-09-04T06:58:19.242Z,18.15
2017-09-04T06:59:18.623Z,17.94
2017-09-04T07:00:19.937Z,17.7
2017-09-04T07:01:18.999Z,17.56
2017-09-04T07:02:19.260Z,17.59
2017-09-04T07:03:19.258Z,17.63
2017-09-04T07:04:19.263Z,17.78
2017-09-04T07:05:19.364Z,18.05
2017-09-04T07:06:18.961Z,18.4
2017-09-04T07:07:18.957Z,18.58
2017-09-04T07:08:18.967Z,18.65
2017-09-04T07:09:18.961Z,18.62
2017-09-04T07:10:19.725Z,18.35
2017-09-04T07:11:18.981Z,18.22
2017-09-04T07:12:18.972Z,17.95
2017-09-04T07:13:19.305Z,17.68
2017-09-04T07:14:19.291Z,17.6
2017-09-04T07:15:19.546Z,17.54
2017-09-04T07:16:19.026Z,17.34
2017-09-04T07:17:19.317Z,17.34
2017-09-04T07:18:19.003Z,17.34
2017-09-04T07:19:18.998Z,17.23
2017-09-04T07:20:19.990Z,17.44
2017-09-04T07:21:19.065Z,17.52
2017-09-04T07:22:19.320Z,17.67
2017-09-04T07:23:19.013Z,17.95
2017-09-04T07:24:19.335Z,18.29
2017-09-04T07:25:18.945Z,18.63
2017-09-04T07:26:19.095Z,19.15
2017-09-04T07:27:19.338Z,19.44
2017-09-04T07:28:19.035Z,19.86
2017-09-04T07:29:18.716Z,20.14
2017-09-04T07:30:19.922Z,20.48
2017-09-04T07:31:19.038Z,20.72
2017-09-04T07:32:19.345Z,21.09
2017-09-04T07:33:19.046Z,21.15
2017-09-04T07:34:19.356Z,21.27
2017-09-04T07:35:19.751Z,21.3
2017-09-04T07:36:18.744Z,21.37
2017-09-04T07:37:18.749Z,21.4
2017-09-04T07:38:19.375Z,21.36
2017-09-04T07:39:19.071Z,21.45
2017-09-04T07:40:19.165Z,21.6
2017-09-04T07:41:18.837Z,21.92
2017-09-04T07:42:19.096Z,21.98
2017-09-04T07:43:19.100Z,21.96
2017-09-04T07:44:19.104Z,21.72
2017-09-04T07:45:19.429Z,21.21
2017-09-04T07:46:19.149Z,20.7
2017-09-04T07:47:19.116Z,20.14
2017-09-04T07:48:19.423Z,19.81
2017-09-04T07:49:19.131Z,19.29
2017-09-04T07:50:19.979Z,18.88
2017-09-04T07:51:19.220Z,18.49
2017-09-04T07:52:19.133Z,18.28
2017-09-04T07:53:19.143Z,18.08
2017-09-04T07:54:19.468Z,17.92
2017-09-04T07:55:19.731Z,17.74
2017-09-04T07:56:18.874Z,17.68
2017-09-04T07:57:19.169Z,17.82
2017-09-04T07:58:18.854Z,18.03
2017-09-04T07:59:19.174Z,18.41
2017-09-04T08:00:19.849Z,18.7
2017-09-04T08:01:19.527Z,19.29
2017-09-04T08:02:19.171Z,19.86
2017-09-04T08:03:19.185Z,20.32
2017-09-04T08:04:19.489Z,20.97
2017-09-04T08:05:19.682Z,21.48
2017-09-04T08:06:19.247Z,21.92
2017-09-04T08:07:19.505Z,22.25
2017-09-04T08:08:19.511Z,22.25
2017-09-04T08:09:19.509Z,22.13
2017-09-04T08:10:19.623Z,22.08
2017-09-04T08:11:18.907Z,22.2
2017-09-04T08:12:19.527Z,22.38
2017-09-04T08:13:19.530Z,22.43
2017-09-04T08:14:19.538Z,22.68
2017-09-04T08:15:19.540Z,22.8
2017-09-04T08:16:19.304Z,22.65
2017-09-04T08:17:19.551Z,22.68
2017-09-04T08:18:19.553Z,22.65
2017-09-04T08:19:19.562Z,22.72
2017-09-04T08:20:19.732Z,22.81
2017-09-04T08:21:19.594Z,22.85
2017-09-04T08:22:19.261Z,23.02
2017-09-04T08:23:19.268Z,22.99
2017-09-04T08:24:19.583Z,22.98
2017-09-04T08:25:19.859Z,22.84
2017-09-04T08:26:19.317Z,22.84
2017-09-04T08:27:19.614Z,22.57
2017-09-04T08:28:19.601Z,22.25
2017-09-04T08:29:19.308Z,21.92
2017-09-04T08:30:19.606Z,21.72
2017-09-04T08:31:19.047Z,21.52
2017-09-04T08:32:19.624Z,21.22
2017-09-04T08:33:19.632Z,20.9
2017-09-04T08:34:19.641Z,20.7
2017-09-04T08:35:19.775Z,20.34
2017-09-04T08:36:19.685Z,20.26
2017-09-04T08:37:19.346Z,20.04
2017-09-04T08:38:19.048Z,19.91
2017-09-04T08:39:19.660Z,19.85
2017-09-04T08:40:20.157Z,19.62
2017-09-04T08:41:19.672Z,19.58
2017-09-04T08:42:19.693Z,19.52
2017-09-04T08:43:19.079Z,19.58
2017-09-04T08:44:19.387Z,19.54
2017-09-04T08:45:19.590Z,19.49
2017-09-04T08:46:19.395Z,19.41
2017-09-04T08:47:19.705Z,19.41
2017-09-04T08:48:19.704Z,19.41
2017-09-04T08:49:19.712Z,19.48
2017-09-04T08:50:19.496Z,19.4
2017-09-04T08:51:19.475Z,19.36
2017-09-04T08:52:19.719Z,19.34
2017-09-04T08:53:19.424Z,19.36
2017-09-04T08:54:19.430Z,19.34
2017-09-04T08:55:19.731Z,19.4
2017-09-04T08:56:19.157Z,19.44
2017-09-04T08:57:19.742Z,19.41
2017-09-04T08:58:19.769Z,19.52
2017-09-04T08:59:19.450Z,19.54
2017-09-04T09:00:20.121Z,19.39
2017-09-04T09:01:19.516Z,19.39
2017-09-04T09:02:19.147Z,19.27
2017-09-04T09:03:19.763Z,19.29
2017-09-04T09:04:19.454Z,19.34
2017-09-04T09:05:19.926Z,19.34
2017-09-04T09:06:19.830Z,19.34
2017-09-04T09:07:19.465Z,19.36
2017-09-04T09:08:19.468Z,19.31
2017-09-04T09:09:19.790Z,19.44
2017-09-04T09:10:19.915Z,19.47
2017-09-04T09:11:19.215Z,19.51
2017-09-04T09:12:19.503Z,19.73
2017-09-04T09:13:19.792Z,19.67
2017-09-04T09:14:19.794Z,19.88
2017-09-04T09:15:19.770Z,19.81
2017-09-04T09:16:19.508Z,19.95
2017-09-04T09:17:19.809Z,20.16
2017-09-04T09:18:19.814Z,20.19
2017-09-04T09:19:19.201Z,20.26
2017-09-04T09:20:19.762Z,20.39
2017-09-04T09:21:19.558Z,20.4
2017-09-04T09:22:19.510Z,20.52
2017-09-04T09:23:19.832Z,20.75
2017-09-04T09:24:19.828Z,20.85
2017-09-04T09:25:19.650Z,20.88
2017-09-04T09:26:19.534Z,20.96
2017-09-04T09:27:19.529Z,21.07
2017-09-04T09:28:19.844Z,21.03
2017-09-04T09:29:19.846Z,20.92
2017-09-04T09:30:19.967Z,20.96
2017-09-04T09:31:19.891Z,20.87
2017-09-04T09:32:19.549Z,20.97
2017-09-04T09:33:19.554Z,21.02
2017-09-04T09:34:19.859Z,21.05
2017-09-04T09:35:20.227Z,21.02
2017-09-04T09:36:19.560Z,21.05
2017-09-04T09:37:19.877Z,21.11
2017-09-04T09:38:19.882Z,21.14
2017-09-04T09:39:19.880Z,21.24
2017-09-04T09:40:20.029Z,21.35
2017-09-04T09:41:19.888Z,21.5
2017-09-04T09:42:19.586Z,21.54
2017-09-04T09:43:19.596Z,21.58
2017-09-04T09:44:19.596Z,21.73
2017-09-04T09:45:19.710Z,21.55
2017-09-04T09:46:19.676Z,21.48
2017-09-04T09:47:19.759Z,21.52
2017-09-04T09:48:19.614Z,21.45
2017-09-04T09:49:19.914Z,21.46
2017-09-04T09:50:20.077Z,21.5
2017-09-04T09:51:19.633Z,21.45
2017-09-04T09:52:19.932Z,21.51
2017-09-04T09:53:19.742Z,21.46
2017-09-04T09:54:19.517Z,21.48
2017-09-04T09:55:19.848Z,21.36
2017-09-04T09:56:19.769Z,21.39
2017-09-04T09:57:19.755Z,21.37
2017-09-04T09:58:19.781Z,21.39
2017-09-04T09:59:19.811Z,21.5
2017-09-04T10:00:19.872Z,21.54
2017-09-04T10:01:19.925Z,21.69
2017-09-04T10:02:20.822Z,21.69
2017-09-04T10:03:20.244Z,21.5
2017-09-04T10:04:19.574Z,21.51
2017-09-04T10:05:20.616Z,21.48
2017-09-04T10:06:20.261Z,21.54
2017-09-04T10:07:20.220Z,21.5
2017-09-04T10:08:20.202Z,21.61
2017-09-04T10:09:20.349Z,21.66
2017-09-04T10:10:19.930Z,21.77
2017-09-04T10:11:20.011Z,21.79
2017-09-04T10:12:20.051Z,21.79
2017-09-04T10:13:19.580Z,21.77
2017-09-04T10:14:20.306Z,21.89
2017-09-04T10:15:20.404Z,21.95
2017-09-04T10:16:19.628Z,22.13
2017-09-04T10:17:20.590Z,21.99
2017-09-04T10:18:20.204Z,21.92
2017-09-04T10:19:19.743Z,21.92
2017-09-04T10:20:20.435Z,21.96
2017-09-04T10:21:20.508Z,22.02
2017-09-04T10:22:19.875Z,21.92
2017-09-04T10:23:20.085Z,21.83
2017-09-04T10:24:19.504Z,21.95
2017-09-04T10:25:19.735Z,21.91
2017-09-04T10:26:20.074Z,21.91
2017-09-04T10:27:20.596Z,21.89
2017-09-04T10:28:20.128Z,21.91
2017-09-04T10:29:20.473Z,21.7
2017-09-04T10:30:20.087Z,21.61
2017-09-04T10:31:20.062Z,21.62
2017-09-04T10:32:20.392Z,21.76
2017-09-04T10:33:20.380Z,21.83
2017-09-04T10:34:20.516Z,21.91
2017-09-04T10:35:20.587Z,22.1
2017-09-04T10:36:20.551Z,22.29
2017-09-04T10:37:19.614Z,22.35
2017-09-04T10:38:20.558Z,22.35
2017-09-04T10:39:20.138Z,22.36
2017-09-04T10:40:20.242Z,22.38
2017-09-04T10:41:20.265Z,22.57
2017-09-04T10:42:20.049Z,22.63
2017-09-04T10:43:20.094Z,22.69
2017-09-04T10:44:20.318Z,22.75
2017-09-04T10:45:20.492Z,22.85
2017-09-04T10:46:20.096Z,22.98
2017-09-04T10:47:20.204Z,23.12
2017-09-04T10:48:20.625Z,23.12
2017-09-04T10:49:19.717Z,23.17
2017-09-04T10:50:20.350Z,23.2
2017-09-04T10:51:19.808Z,22.98
2017-09-04T10:52:19.813Z,22.88
2017-09-04T10:53:20.189Z,22.62
2017-09-04T10:54:20.642Z,22.57
2017-09-04T10:55:20.772Z,22.53
2017-09-04T10:56:20.280Z,22.33
2017-09-04T10:57:19.754Z,22.18
2017-09-04T10:58:20.251Z,22.2
2017-09-04T10:59:20.317Z,22.23
2017-09-04T11:00:20.036Z,22.38
2017-09-04T11:01:19.697Z,22.35
2017-09-04T11:02:20.295Z,22.3
2017-09-04T11:03:20.342Z,22.18
2017-09-04T11:04:20.069Z,22.22
2017-09-04T11:05:20.331Z,22.26
2017-09-04T11:06:20.037Z,22.26
2017-09-04T11:07:20.274Z,22.2
2017-09-04T11:08:20.275Z,22.14
2017-09-04T11:09:20.277Z,22.13
2017-09-04T11:10:20.338Z,22.13
2017-09-04T11:11:19.664Z,22.13
2017-09-04T11:12:19.989Z,22.07
2017-09-04T11:13:20.058Z,21.99
2017-09-04T11:14:20.307Z,21.89
2017-09-04T11:15:20.072Z,21.82
2017-09-04T11:16:19.966Z,21.62
2017-09-04T11:17:20.273Z,21.61
2017-09-04T11:18:20.322Z,21.51
2017-09-04T11:19:19.974Z,21.51
2017-09-04T11:20:19.978Z,21.58
2017-09-04T11:21:19.980Z,21.61
2017-09-04T11:22:20.004Z,21.58
2017-09-04T11:23:19.681Z,21.6
2017-09-04T11:24:19.995Z,21.57
2017-09-04T11:25:19.897Z,21.55
2017-09-04T11:26:20.008Z,21.48
2017-09-04T11:27:20.004Z,21.52
2017-09-04T11:28:20.319Z,21.51
2017-09-04T11:29:20.320Z,21.67
2017-09-04T11:30:20.563Z,21.83
2017-09-04T11:31:20.066Z,21.98
2017-09-04T11:32:20.331Z,22.04
2017-09-04T11:33:20.345Z,21.91
2017-09-04T11:34:20.031Z,21.92
2017-09-04T11:35:20.046Z,21.91
2017-09-04T11:36:20.084Z,22.07
2017-09-04T11:37:20.041Z,22.15
2017-09-04T11:38:20.380Z,22.18
2017-09-04T11:39:20.372Z,22.28
2017-09-04T11:40:20.057Z,22.32
2017-09-04T11:41:20.395Z,22.5
2017-09-04T11:42:20.372Z,22.6
2017-09-04T11:43:20.379Z,22.7
2017-09-04T11:44:20.067Z,22.75
2017-09-04T11:45:20.382Z,22.76
2017-09-04T11:46:20.117Z,22.84
2017-09-04T11:47:20.388Z,22.78
2017-09-04T11:48:20.085Z,22.8
2017-09-04T11:49:20.088Z,22.62
2017-09-04T11:50:20.102Z,22.54
2017-09-04T11:51:20.184Z,22.51
2017-09-04T11:52:20.408Z,22.48
2017-09-04T11:53:20.416Z,22.55
2017-09-04T11:54:20.115Z,22.62
2017-09-04T11:55:20.458Z,22.76
2017-09-04T11:56:20.479Z,22.9
2017-09-04T11:57:20.477Z,22.99
2017-09-04T11:58:20.430Z,22.94
2017-09-04T11:59:20.437Z,22.99
2017-09-04T12:00:20.167Z,22.99
2017-09-04T12:01:19.899Z,22.94
2017-09-04T12:02:20.137Z,22.99
2017-09-04T12:03:20.484Z,22.87
2017-09-04T12:04:20.462Z,22.7
2017-09-04T12:05:20.457Z,22.65
2017-09-04T12:06:20.154Z,22.69
2017-09-04T12:07:20.473Z,22.73
2017-09-04T12:08:20.191Z,22.76
2017-09-04T12:09:20.482Z,22.66
2017-09-04T12:10:20.481Z,22.63
2017-09-04T12:11:20.532Z,22.54
2017-09-04T12:12:20.495Z,22.54
2017-09-04T12:13:20.499Z,22.6
2017-09-04T12:14:20.188Z,22.54
2017-09-04T12:15:20.191Z,22.51
2017-09-04T12:16:20.505Z,22.48
2017-09-04T12:17:20.520Z,22.43
2017-09-04T12:18:20.520Z,22.43
2017-09-04T12:19:20.529Z,22.36
2017-09-04T12:20:20.522Z,22.29
2017-09-04T12:21:20.544Z,22.25
2017-09-04T12:22:20.219Z,22.22
2017-09-04T12:23:20.533Z,22.22
2017-09-04T12:24:20.229Z,22.22
2017-09-04T12:25:20.345Z,22.35
2017-09-04T12:26:20.263Z,22.32
2017-09-04T12:27:20.546Z,22.43
2017-09-04T12:28:20.564Z,22.44
2017-09-04T12:29:20.251Z,22.47
2017-09-04T12:30:20.560Z,22.48
2017-09-04T12:31:19.946Z,22.57
2017-09-04T12:32:20.583Z,22.54
2017-09-04T12:33:19.960Z,22.53
2017-09-04T12:34:20.587Z,22.48
2017-09-04T12:35:20.610Z,22.5
2017-09-04T12:36:20.303Z,22.5
2017-09-04T12:37:20.589Z,22.45
2017-09-04T12:38:20.588Z,22.29
2017-09-04T12:39:20.297Z,22.39
2017-09-04T12:40:19.981Z,22.33
2017-09-04T12:41:20.300Z,22.33
2017-09-04T12:42:20.605Z,22.36
2017-09-04T12:43:20.610Z,22.41
2017-09-04T12:44:20.613Z,22.41
2017-09-04T12:45:20.155Z,22.3
2017-09-04T12:46:20.709Z,22.3
2017-09-04T12:47:20.315Z,22.35
2017-09-04T12:48:20.320Z,22.41
2017-09-04T12:49:20.322Z,22.43
2017-09-04T12:50:20.356Z,22.55
2017-09-04T12:51:20.388Z,22.59
2017-09-04T12:52:20.682Z,22.43
2017-09-04T12:53:20.352Z,22.35
2017-09-04T12:54:20.652Z,22.28
2017-09-04T12:55:20.353Z,22.32